sensor_id;sensor_type;location;lat;lon;timestamp;temperature;humidity
21085;DHT22;34247;50.064;19.970;2022-08-01T00:00:07;32.00;37.80
21085;DHT22;34247;50.064;19.970;2022-08-01T00:01:15;32.00;37.80
21085;DHT22;34247;50.064;19.970;2022-08-01T00:02:18;32.00;37.80
21085;DHT22;34247;50.064;19.970;2022-08-01T00:03:23;32.00;37.70
21085;DHT22;34247;50.064;19.970;2022-08-01T00:04:26;32.00;37.70
21085;DHT22;34247;50.064;19.970;2022-08-01T00:05:30;32.00;37.80
21085;DHT22;34247;50.064;19.970;2022-08-01T00:06:34;32.00;37.90
21085;DHT22;34247;50.064;19.970;2022-08-01T00:07:38;32.00;37.80
21085;DHT22;34247;50.064;19.970;2022-08-01T00:08:42;32.00;37.80
21085;DHT22;34247;50.064;19.970;2022-08-01T00:09:46;32.00;37.80
21085;DHT22;34247;50.064;19.970;2022-08-01T00:10:50;32.00;37.80
21085;DHT22;34247;50.064;19.970;2022-08-01T00:11:54;32.00;37.70
21085;DHT22;34247;50.064;19.970;2022-08-01T00:13:02;32.00;37.80
21085;DHT22;34247;50.064;19.970;2022-08-01T00:14:06;32.00;37.80
21085;DHT22;34247;50.064;19.970;2022-08-01T00:15:12;32.00;37.70
21085;DHT22;34247;50.064;19.970;2022-08-01T00:16:20;32.00;37.70
21085;DHT22;34247;50.064;19.970;2022-08-01T00:17:26;32.00;37.80
21085;DHT22;34247;50.064;19.970;2022-08-01T00:18:30;31.90;37.70
21085;DHT22;34247;50.064;19.970;2022-08-01T00:19:34;32.00;37.80
21085;DHT22;34247;50.064;19.970;2022-08-01T00:20:38;32.00;37.80
21085;DHT22;34247;50.064;19.970;2022-08-01T00:21:42;32.00;37.70
21085;DHT22;34247;50.064;19.970;2022-08-01T00:22:54;31.90;37.70
21085;DHT22;34247;50.064;19.970;2022-08-01T00:23:58;32.00;37.80
21085;DHT22;34247;50.064;19.970;2022-08-01T00:25:04;31.90;37.80
21085;DHT22;34247;50.064;19.970;2022-08-01T00:26:08;32.00;37.80
21085;DHT22;34247;50.064;19.970;2022-08-01T00:27:12;31.90;37.80
21085;DHT22;34247;50.064;19.970;2022-08-01T00:28:17;31.90;37.70
21085;DHT22;34247;50.064;19.970;2022-08-01T00:29:21;31.90;37.80
21085;DHT22;34247;50.064;19.970;2022-08-01T00:30:44;31.90;37.70
21085;DHT22;34247;50.064;19.970;2022-08-01T00:31:48;31.90;37.70
21085;DHT22;34247;50.064;19.970;2022-08-01T00:32:53;31.90;37.80
21085;DHT22;34247;50.064;19.970;2022-08-01T00:33:56;32.00;37.70
21085;DHT22;34247;50.064;19.970;2022-08-01T00:35:00;32.00;37.70
21085;DHT22;34247;50.064;19.970;2022-08-01T00:36:04;31.90;37.70
21085;DHT22;34247;50.064;19.970;2022-08-01T00:37:09;31.90;37.70
21085;DHT22;34247;50.064;19.970;2022-08-01T00:38:18;31.90;38.40
21085;DHT22;34247;50.064;19.970;2022-08-01T00:39:22;31.90;37.80
21085;DHT22;34247;50.064;19.970;2022-08-01T00:40:26;31.90;38.30
21085;DHT22;34247;50.064;19.970;2022-08-01T00:41:30;31.90;37.70
21085;DHT22;34247;50.064;19.970;2022-08-01T00:42:34;31.90;37.60
21085;DHT22;34247;50.064;19.970;2022-08-01T00:43:45;31.90;37.70
21085;DHT22;34247;50.064;19.970;2022-08-01T00:44:48;31.90;37.80
21085;DHT22;34247;50.064;19.970;2022-08-01T00:45:52;31.90;37.70
21085;DHT22;34247;50.064;19.970;2022-08-01T00:46:56;31.90;37.80
21085;DHT22;34247;50.064;19.970;2022-08-01T00:48:00;31.90;37.80
21085;DHT22;34247;50.064;19.970;2022-08-01T00:49:05;31.80;37.80
21085;DHT22;34247;50.064;19.970;2022-08-01T00:50:13;31.90;37.80
21085;DHT22;34247;50.064;19.970;2022-08-01T00:51:17;31.80;37.70
21085;DHT22;34247;50.064;19.970;2022-08-01T00:52:21;31.80;37.70
21085;DHT22;34247;50.064;19.970;2022-08-01T00:53:25;31.80;37.70
21085;DHT22;34247;50.064;19.970;2022-08-01T00:54:50;31.80;37.70
21085;DHT22;34247;50.064;19.970;2022-08-01T00:55:54;31.80;37.80
21085;DHT22;34247;50.064;19.970;2022-08-01T00:56:59;31.80;37.80
21085;DHT22;34247;50.064;19.970;2022-08-01T00:58:03;31.80;37.70
21085;DHT22;34247;50.064;19.970;2022-08-01T00:59:09;31.80;37.70
21085;DHT22;34247;50.064;19.970;2022-08-01T01:00:16;31.80;37.70
21085;DHT22;34247;50.064;19.970;2022-08-01T01:01:29;31.80;37.70
21085;DHT22;34247;50.064;19.970;2022-08-01T01:02:42;31.80;37.60
21085;DHT22;34247;50.064;19.970;2022-08-01T01:03:51;31.80;37.70
21085;DHT22;34247;50.064;19.970;2022-08-01T01:05:02;31.80;37.70
21085;DHT22;34247;50.064;19.970;2022-08-01T01:06:26;31.80;37.60
21085;DHT22;34247;50.064;19.970;2022-08-01T01:10:55;31.80;37.60
21085;DHT22;34247;50.064;19.970;2022-08-01T01:13:46;31.80;37.60
21085;DHT22;34247;50.064;19.970;2022-08-01T01:16:36;31.80;37.60
21085;DHT22;34247;50.064;19.970;2022-08-01T01:19:15;31.70;37.70
21085;DHT22;34247;50.064;19.970;2022-08-01T01:20:30;31.70;37.70
21085;DHT22;34247;50.064;19.970;2022-08-01T01:27:14;31.70;37.70
21085;DHT22;34247;50.064;19.970;2022-08-01T01:28:35;31.70;37.80
21085;DHT22;34247;50.064;19.970;2022-08-01T01:29:56;31.70;37.70
21085;DHT22;34247;50.064;19.970;2022-08-01T01:31:06;31.70;37.70
21085;DHT22;34247;50.064;19.970;2022-08-01T01:33:40;31.70;37.70
21085;DHT22;34247;50.064;19.970;2022-08-01T01:34:50;31.70;37.80
21085;DHT22;34247;50.064;19.970;2022-08-01T01:36:04;31.70;37.80
21085;DHT22;34247;50.064;19.970;2022-08-01T01:37:17;31.70;37.80
21085;DHT22;34247;50.064;19.970;2022-08-01T01:38:31;31.70;37.70
21085;DHT22;34247;50.064;19.970;2022-08-01T01:39:40;31.70;37.80
21085;DHT22;34247;50.064;19.970;2022-08-01T01:40:56;31.70;37.80
21085;DHT22;34247;50.064;19.970;2022-08-01T01:42:05;31.70;37.80
21085;DHT22;34247;50.064;19.970;2022-08-01T01:43:11;31.70;37.80
21085;DHT22;34247;50.064;19.970;2022-08-01T01:44:17;31.70;37.70
21085;DHT22;34247;50.064;19.970;2022-08-01T01:45:24;31.70;37.70
21085;DHT22;34247;50.064;19.970;2022-08-01T01:46:31;31.70;37.80
21085;DHT22;34247;50.064;19.970;2022-08-01T01:47:37;31.70;37.70
21085;DHT22;34247;50.064;19.970;2022-08-01T01:48:44;31.70;37.80
21085;DHT22;34247;50.064;19.970;2022-08-01T01:49:49;31.70;37.80
21085;DHT22;34247;50.064;19.970;2022-08-01T01:50:56;31.70;37.80
21085;DHT22;34247;50.064;19.970;2022-08-01T01:52:02;31.70;37.80
21085;DHT22;34247;50.064;19.970;2022-08-01T01:53:09;31.70;37.80
21085;DHT22;34247;50.064;19.970;2022-08-01T01:54:18;31.70;37.80
21085;DHT22;34247;50.064;19.970;2022-08-01T01:55:25;31.70;37.90
21085;DHT22;34247;50.064;19.970;2022-08-01T01:56:31;31.70;37.80
21085;DHT22;34247;50.064;19.970;2022-08-01T01:57:39;31.70;37.90
21085;DHT22;34247;50.064;19.970;2022-08-01T01:58:48;31.70;37.80
21085;DHT22;34247;50.064;19.970;2022-08-01T01:59:55;31.70;37.80
21085;DHT22;34247;50.064;19.970;2022-08-01T02:01:03;31.70;37.70
21085;DHT22;34247;50.064;19.970;2022-08-01T02:02:17;31.70;37.80
21085;DHT22;34247;50.064;19.970;2022-08-01T02:03:23;31.70;37.70
21085;DHT22;34247;50.064;19.970;2022-08-01T02:04:31;31.70;37.70
21085;DHT22;34247;50.064;19.970;2022-08-01T02:05:37;31.70;37.70
21085;DHT22;34247;50.064;19.970;2022-08-01T02:06:45;31.70;37.80
21085;DHT22;34247;50.064;19.970;2022-08-01T02:07:50;31.70;37.80
21085;DHT22;34247;50.064;19.970;2022-08-01T02:09:02;31.70;37.80
21085;DHT22;34247;50.064;19.970;2022-08-01T02:10:07;31.70;37.80
21085;DHT22;34247;50.064;19.970;2022-08-01T02:11:13;31.70;37.70
21085;DHT22;34247;50.064;19.970;2022-08-01T02:12:24;31.70;37.70
21085;DHT22;34247;50.064;19.970;2022-08-01T02:13:32;31.70;37.70
21085;DHT22;34247;50.064;19.970;2022-08-01T02:14:39;31.70;37.60
21085;DHT22;34247;50.064;19.970;2022-08-01T02:15:45;31.70;37.70
21085;DHT22;34247;50.064;19.970;2022-08-01T02:17:02;31.70;37.50
21085;DHT22;34247;50.064;19.970;2022-08-01T02:18:11;31.70;37.50
21085;DHT22;34247;50.064;19.970;2022-08-01T02:19:19;31.70;37.60
21085;DHT22;34247;50.064;19.970;2022-08-01T02:20:25;31.70;37.50
21085;DHT22;34247;50.064;19.970;2022-08-01T02:21:55;31.70;37.50
21085;DHT22;34247;50.064;19.970;2022-08-01T02:23:11;31.70;37.50
21085;DHT22;34247;50.064;19.970;2022-08-01T02:24:27;31.60;37.20
21085;DHT22;34247;50.064;19.970;2022-08-01T02:25:39;31.70;37.50
21085;DHT22;34247;50.064;19.970;2022-08-01T02:27:12;31.60;37.30
21085;DHT22;34247;50.064;19.970;2022-08-01T02:28:38;31.60;37.40
21085;DHT22;34247;50.064;19.970;2022-08-01T02:30:00;31.70;37.40
21085;DHT22;34247;50.064;19.970;2022-08-01T02:31:13;31.70;37.30
21085;DHT22;34247;50.064;19.970;2022-08-01T02:32:46;31.70;37.30
21085;DHT22;34247;50.064;19.970;2022-08-01T02:34:07;31.70;37.50
21085;DHT22;34247;50.064;19.970;2022-08-01T02:35:28;31.60;37.30
21085;DHT22;34247;50.064;19.970;2022-08-01T02:36:35;31.60;37.30
21085;DHT22;34247;50.064;19.970;2022-08-01T02:37:41;31.60;37.30
21085;DHT22;34247;50.064;19.970;2022-08-01T02:38:49;31.60;37.70
21085;DHT22;34247;50.064;19.970;2022-08-01T02:39:55;31.60;37.40
21085;DHT22;34247;50.064;19.970;2022-08-01T02:41:10;31.60;37.40
21085;DHT22;34247;50.064;19.970;2022-08-01T02:42:18;31.60;37.40
21085;DHT22;34247;50.064;19.970;2022-08-01T02:43:26;31.60;37.30
21085;DHT22;34247;50.064;19.970;2022-08-01T02:44:37;31.60;37.40
21085;DHT22;34247;50.064;19.970;2022-08-01T02:45:47;31.60;37.40
21085;DHT22;34247;50.064;19.970;2022-08-01T02:47:03;31.60;37.40
21085;DHT22;34247;50.064;19.970;2022-08-01T02:48:10;31.60;37.20
21085;DHT22;34247;50.064;19.970;2022-08-01T02:49:16;31.50;37.20
21085;DHT22;34247;50.064;19.970;2022-08-01T02:50:25;31.60;37.30
21085;DHT22;34247;50.064;19.970;2022-08-01T02:51:32;31.50;37.10
21085;DHT22;34247;50.064;19.970;2022-08-01T02:52:40;31.60;37.30
21085;DHT22;34247;50.064;19.970;2022-08-01T02:53:48;31.50;37.10
21085;DHT22;34247;50.064;19.970;2022-08-01T02:54:56;31.50;37.20
21085;DHT22;34247;50.064;19.970;2022-08-01T02:56:04;31.50;37.10
21085;DHT22;34247;50.064;19.970;2022-08-01T02:57:10;31.50;37.20
21085;DHT22;34247;50.064;19.970;2022-08-01T02:58:18;31.50;37.20
21085;DHT22;34247;50.064;19.970;2022-08-01T02:59:32;31.50;37.20
21085;DHT22;34247;50.064;19.970;2022-08-01T03:00:44;31.50;37.20
21085;DHT22;34247;50.064;19.970;2022-08-01T03:01:53;31.50;37.20
21085;DHT22;34247;50.064;19.970;2022-08-01T03:02:59;31.50;37.10
21085;DHT22;34247;50.064;19.970;2022-08-01T03:04:07;31.50;37.10
21085;DHT22;34247;50.064;19.970;2022-08-01T03:05:15;31.50;37.10
21085;DHT22;34247;50.064;19.970;2022-08-01T03:06:21;31.50;37.10
21085;DHT22;34247;50.064;19.970;2022-08-01T03:07:26;31.50;37.10
21085;DHT22;34247;50.064;19.970;2022-08-01T03:08:37;31.50;37.10
21085;DHT22;34247;50.064;19.970;2022-08-01T03:09:45;31.50;37.70
21085;DHT22;34247;50.064;19.970;2022-08-01T03:10:52;31.50;37.00
21085;DHT22;34247;50.064;19.970;2022-08-01T03:12:01;31.50;37.00
21085;DHT22;34247;50.064;19.970;2022-08-01T03:13:08;31.50;37.10
21085;DHT22;34247;50.064;19.970;2022-08-01T03:14:16;31.50;37.00
21085;DHT22;34247;50.064;19.970;2022-08-01T03:15:26;31.50;36.80
21085;DHT22;34247;50.064;19.970;2022-08-01T03:16:36;31.50;36.90
21085;DHT22;34247;50.064;19.970;2022-08-01T03:17:43;31.50;36.90
21085;DHT22;34247;50.064;19.970;2022-08-01T03:18:53;31.50;36.90
21085;DHT22;34247;50.064;19.970;2022-08-01T03:20:02;31.50;36.80
21085;DHT22;34247;50.064;19.970;2022-08-01T03:21:09;31.50;36.80
21085;DHT22;34247;50.064;19.970;2022-08-01T03:22:15;31.50;36.80
21085;DHT22;34247;50.064;19.970;2022-08-01T03:23:21;31.50;36.70
21085;DHT22;34247;50.064;19.970;2022-08-01T03:24:42;31.50;36.70
21085;DHT22;34247;50.064;19.970;2022-08-01T03:25:54;31.50;36.80
21085;DHT22;34247;50.064;19.970;2022-08-01T03:26:59;31.40;36.80
21085;DHT22;34247;50.064;19.970;2022-08-01T03:28:04;31.50;36.70
21085;DHT22;34247;50.064;19.970;2022-08-01T03:29:15;31.40;36.60
21085;DHT22;34247;50.064;19.970;2022-08-01T03:30:24;31.40;36.70
21085;DHT22;34247;50.064;19.970;2022-08-01T03:31:30;31.40;36.70
21085;DHT22;34247;50.064;19.970;2022-08-01T03:32:35;31.40;36.80
21085;DHT22;34247;50.064;19.970;2022-08-01T03:33:39;31.40;36.80
21085;DHT22;34247;50.064;19.970;2022-08-01T03:34:43;31.40;36.80
21085;DHT22;34247;50.064;19.970;2022-08-01T03:35:49;31.40;36.70
21085;DHT22;34247;50.064;19.970;2022-08-01T03:37:24;31.40;36.80
21085;DHT22;34247;50.064;19.970;2022-08-01T03:38:31;31.40;36.80
21085;DHT22;34247;50.064;19.970;2022-08-01T03:39:52;31.40;36.90
21085;DHT22;34247;50.064;19.970;2022-08-01T03:41:20;31.30;36.70
21085;DHT22;34247;50.064;19.970;2022-08-01T03:42:39;31.30;36.70
21085;DHT22;34247;50.064;19.970;2022-08-01T03:44:00;31.40;36.90
21085;DHT22;34247;50.064;19.970;2022-08-01T03:45:10;31.30;36.90
21085;DHT22;34247;50.064;19.970;2022-08-01T03:46:22;31.30;36.90
21085;DHT22;34247;50.064;19.970;2022-08-01T03:47:34;31.30;36.90
21085;DHT22;34247;50.064;19.970;2022-08-01T03:48:50;31.30;36.90
21085;DHT22;34247;50.064;19.970;2022-08-01T03:49:59;31.30;37.00
21085;DHT22;34247;50.064;19.970;2022-08-01T03:51:07;31.30;37.00
21085;DHT22;34247;50.064;19.970;2022-08-01T03:52:12;31.30;37.00
21085;DHT22;34247;50.064;19.970;2022-08-01T03:53:22;31.30;37.10
21085;DHT22;34247;50.064;19.970;2022-08-01T03:54:31;31.30;37.10
21085;DHT22;34247;50.064;19.970;2022-08-01T03:55:39;31.30;37.10
21085;DHT22;34247;50.064;19.970;2022-08-01T03:56:47;31.30;37.10
21085;DHT22;34247;50.064;19.970;2022-08-01T03:57:53;31.30;37.10
21085;DHT22;34247;50.064;19.970;2022-08-01T03:58:59;31.30;37.10
21085;DHT22;34247;50.064;19.970;2022-08-01T04:00:07;31.30;37.10
21085;DHT22;34247;50.064;19.970;2022-08-01T04:01:13;31.30;37.20
21085;DHT22;34247;50.064;19.970;2022-08-01T04:02:18;31.30;37.20
21085;DHT22;34247;50.064;19.970;2022-08-01T04:03:25;31.30;37.20
21085;DHT22;34247;50.064;19.970;2022-08-01T04:04:30;31.30;37.30
21085;DHT22;34247;50.064;19.970;2022-08-01T04:05:34;31.30;37.20
21085;DHT22;34247;50.064;19.970;2022-08-01T04:06:39;31.30;37.20
21085;DHT22;34247;50.064;19.970;2022-08-01T04:07:48;31.30;37.30
21085;DHT22;34247;50.064;19.970;2022-08-01T04:08:59;31.30;37.30
21085;DHT22;34247;50.064;19.970;2022-08-01T04:10:04;31.30;37.30
21085;DHT22;34247;50.064;19.970;2022-08-01T04:11:09;31.30;37.30
21085;DHT22;34247;50.064;19.970;2022-08-01T04:12:14;31.20;37.20
21085;DHT22;34247;50.064;19.970;2022-08-01T04:13:17;31.30;37.30
21085;DHT22;34247;50.064;19.970;2022-08-01T04:14:21;31.30;37.30
21085;DHT22;34247;50.064;19.970;2022-08-01T04:15:25;31.30;37.30
21085;DHT22;34247;50.064;19.970;2022-08-01T04:16:29;31.30;37.30
21085;DHT22;34247;50.064;19.970;2022-08-01T04:17:33;31.30;37.40
21085;DHT22;34247;50.064;19.970;2022-08-01T04:18:37;31.30;37.40
21085;DHT22;34247;50.064;19.970;2022-08-01T04:19:41;31.30;38.00
21085;DHT22;34247;50.064;19.970;2022-08-01T04:20:48;31.30;38.00
21085;DHT22;34247;50.064;19.970;2022-08-01T04:21:52;31.30;37.40
21085;DHT22;34247;50.064;19.970;2022-08-01T04:22:56;31.30;37.40
21085;DHT22;34247;50.064;19.970;2022-08-01T04:24:11;31.30;37.40
21085;DHT22;34247;50.064;19.970;2022-08-01T04:25:33;31.30;37.40
21085;DHT22;34247;50.064;19.970;2022-08-01T04:26:41;31.30;37.40
21085;DHT22;34247;50.064;19.970;2022-08-01T04:27:49;31.40;37.30
21085;DHT22;34247;50.064;19.970;2022-08-01T04:28:56;31.30;37.30
21085;DHT22;34247;50.064;19.970;2022-08-01T04:30:00;31.30;37.40
21085;DHT22;34247;50.064;19.970;2022-08-01T04:31:07;31.30;37.40
21085;DHT22;34247;50.064;19.970;2022-08-01T04:32:16;31.30;37.40
21085;DHT22;34247;50.064;19.970;2022-08-01T04:33:24;31.40;37.30
21085;DHT22;34247;50.064;19.970;2022-08-01T04:34:32;31.40;37.40
21085;DHT22;34247;50.064;19.970;2022-08-01T04:35:38;31.40;37.30
21085;DHT22;34247;50.064;19.970;2022-08-01T04:37:09;31.40;37.30
21085;DHT22;34247;50.064;19.970;2022-08-01T04:38:22;31.40;37.30
21085;DHT22;34247;50.064;19.970;2022-08-01T04:39:32;31.50;37.30
21085;DHT22;34247;50.064;19.970;2022-08-01T04:40:54;31.50;37.20
21085;DHT22;34247;50.064;19.970;2022-08-01T04:41:59;31.50;37.10
21085;DHT22;34247;50.064;19.970;2022-08-01T04:43:07;31.50;37.10
21085;DHT22;34247;50.064;19.970;2022-08-01T04:44:12;31.50;37.10
21085;DHT22;34247;50.064;19.970;2022-08-01T04:45:17;31.50;37.10
21085;DHT22;34247;50.064;19.970;2022-08-01T04:46:22;31.50;37.10
21085;DHT22;34247;50.064;19.970;2022-08-01T04:47:27;31.50;37.10
21085;DHT22;34247;50.064;19.970;2022-08-01T04:48:33;31.50;37.10
21085;DHT22;34247;50.064;19.970;2022-08-01T04:49:40;31.50;37.10
21085;DHT22;34247;50.064;19.970;2022-08-01T04:50:51;31.60;37.00
21085;DHT22;34247;50.064;19.970;2022-08-01T04:51:56;31.60;37.00
21085;DHT22;34247;50.064;19.970;2022-08-01T04:53:03;31.60;36.90
21085;DHT22;34247;50.064;19.970;2022-08-01T04:54:08;31.60;36.90
21085;DHT22;34247;50.064;19.970;2022-08-01T04:55:12;31.60;36.80
21085;DHT22;34247;50.064;19.970;2022-08-01T04:56:16;31.60;36.80
21085;DHT22;34247;50.064;19.970;2022-08-01T04:57:20;31.60;36.80
21085;DHT22;34247;50.064;19.970;2022-08-01T04:58:24;31.60;36.80
21085;DHT22;34247;50.064;19.970;2022-08-01T04:59:33;31.60;36.70
21085;DHT22;34247;50.064;19.970;2022-08-01T05:00:43;31.60;36.80
21085;DHT22;34247;50.064;19.970;2022-08-01T05:01:50;31.60;36.80
21085;DHT22;34247;50.064;19.970;2022-08-01T05:02:54;31.60;36.80
21085;DHT22;34247;50.064;19.970;2022-08-01T05:03:58;31.50;36.70
21085;DHT22;34247;50.064;19.970;2022-08-01T05:05:04;31.60;36.80
21085;DHT22;34247;50.064;19.970;2022-08-01T05:06:09;31.60;36.80
21085;DHT22;34247;50.064;19.970;2022-08-01T05:07:13;31.60;36.50
21085;DHT22;34247;50.064;19.970;2022-08-01T05:08:19;31.60;36.60
21085;DHT22;34247;50.064;19.970;2022-08-01T05:09:22;31.60;36.50
21085;DHT22;34247;50.064;19.970;2022-08-01T05:10:33;31.60;36.50
21085;DHT22;34247;50.064;19.970;2022-08-01T05:11:38;31.60;36.30
21085;DHT22;34247;50.064;19.970;2022-08-01T05:12:42;31.70;36.30
21085;DHT22;34247;50.064;19.970;2022-08-01T05:13:45;31.60;36.30
21085;DHT22;34247;50.064;19.970;2022-08-01T05:14:50;31.60;36.30
21085;DHT22;34247;50.064;19.970;2022-08-01T05:15:54;31.60;36.30
21085;DHT22;34247;50.064;19.970;2022-08-01T05:17:02;31.60;36.20
21085;DHT22;34247;50.064;19.970;2022-08-01T05:18:08;31.70;36.20
21085;DHT22;34247;50.064;19.970;2022-08-01T05:19:12;31.70;36.30
21085;DHT22;34247;50.064;19.970;2022-08-01T05:20:16;31.60;36.20
21085;DHT22;34247;50.064;19.970;2022-08-01T05:21:20;31.60;36.30
21085;DHT22;34247;50.064;19.970;2022-08-01T05:22:24;31.70;36.30
21085;DHT22;34247;50.064;19.970;2022-08-01T05:23:28;31.60;36.10
21085;DHT22;34247;50.064;19.970;2022-08-01T05:24:47;31.70;36.30
21085;DHT22;34247;50.064;19.970;2022-08-01T05:25:52;31.70;36.30
21085;DHT22;34247;50.064;19.970;2022-08-01T05:27:00;31.70;36.60
21085;DHT22;34247;50.064;19.970;2022-08-01T05:28:05;31.70;36.60
21085;DHT22;34247;50.064;19.970;2022-08-01T05:29:11;31.70;36.70
21085;DHT22;34247;50.064;19.970;2022-08-01T05:30:15;31.70;36.70
21085;DHT22;34247;50.064;19.970;2022-08-01T05:31:19;31.70;36.70
21085;DHT22;34247;50.064;19.970;2022-08-01T05:32:23;31.70;36.30
21085;DHT22;34247;50.064;19.970;2022-08-01T05:33:27;31.80;36.10
21085;DHT22;34247;50.064;19.970;2022-08-01T05:34:31;31.80;36.20
21085;DHT22;34247;50.064;19.970;2022-08-01T05:35:36;31.90;36.30
21085;DHT22;34247;50.064;19.970;2022-08-01T05:36:51;31.90;36.30
21085;DHT22;34247;50.064;19.970;2022-08-01T05:38:00;31.90;36.20
21085;DHT22;34247;50.064;19.970;2022-08-01T05:39:04;31.90;36.00
21085;DHT22;34247;50.064;19.970;2022-08-01T05:40:08;32.00;36.00
21085;DHT22;34247;50.064;19.970;2022-08-01T05:41:12;32.10;36.00
21085;DHT22;34247;50.064;19.970;2022-08-01T05:42:17;32.10;36.10
21085;DHT22;34247;50.064;19.970;2022-08-01T05:43:21;32.10;36.30
21085;DHT22;34247;50.064;19.970;2022-08-01T05:44:31;32.10;36.20
21085;DHT22;34247;50.064;19.970;2022-08-01T05:45:35;32.20;36.50
21085;DHT22;34247;50.064;19.970;2022-08-01T05:46:39;32.20;36.20
21085;DHT22;34247;50.064;19.970;2022-08-01T05:47:43;32.30;35.90
21085;DHT22;34247;50.064;19.970;2022-08-01T05:48:47;32.30;35.80
21085;DHT22;34247;50.064;19.970;2022-08-01T05:49:52;32.30;35.90
21085;DHT22;34247;50.064;19.970;2022-08-01T05:50:56;32.40;35.90
21085;DHT22;34247;50.064;19.970;2022-08-01T05:52:01;32.50;35.50
21085;DHT22;34247;50.064;19.970;2022-08-01T05:53:06;32.50;35.40
21085;DHT22;34247;50.064;19.970;2022-08-01T05:54:10;32.60;35.40
21085;DHT22;34247;50.064;19.970;2022-08-01T05:55:14;32.70;35.40
21085;DHT22;34247;50.064;19.970;2022-08-01T05:56:19;32.70;35.30
21085;DHT22;34247;50.064;19.970;2022-08-01T05:57:26;32.80;35.10
21085;DHT22;34247;50.064;19.970;2022-08-01T05:58:31;32.80;35.00
21085;DHT22;34247;50.064;19.970;2022-08-01T05:59:35;32.90;34.80
21085;DHT22;34247;50.064;19.970;2022-08-01T06:00:40;33.00;34.60
21085;DHT22;34247;50.064;19.970;2022-08-01T06:01:43;33.00;34.70
21085;DHT22;34247;50.064;19.970;2022-08-01T06:02:48;33.10;34.80
21085;DHT22;34247;50.064;19.970;2022-08-01T06:03:52;33.20;34.80
21085;DHT22;34247;50.064;19.970;2022-08-01T06:04:58;33.20;34.80
21085;DHT22;34247;50.064;19.970;2022-08-01T06:06:03;33.30;34.60
21085;DHT22;34247;50.064;19.970;2022-08-01T06:07:07;33.30;34.60
21085;DHT22;34247;50.064;19.970;2022-08-01T06:08:12;33.40;34.60
21085;DHT22;34247;50.064;19.970;2022-08-01T06:09:16;33.50;34.40
21085;DHT22;34247;50.064;19.970;2022-08-01T06:10:21;33.50;34.30
21085;DHT22;34247;50.064;19.970;2022-08-01T06:11:24;33.60;34.10
21085;DHT22;34247;50.064;19.970;2022-08-01T06:12:28;33.70;34.00
21085;DHT22;34247;50.064;19.970;2022-08-01T06:13:37;33.70;33.90
21085;DHT22;34247;50.064;19.970;2022-08-01T06:14:50;33.80;33.80
21085;DHT22;34247;50.064;19.970;2022-08-01T06:15:54;33.90;33.50
21085;DHT22;34247;50.064;19.970;2022-08-01T06:16:58;34.00;33.40
21085;DHT22;34247;50.064;19.970;2022-08-01T06:18:02;34.00;33.20
21085;DHT22;34247;50.064;19.970;2022-08-01T06:19:08;34.10;33.10
21085;DHT22;34247;50.064;19.970;2022-08-01T06:20:12;34.30;33.30
21085;DHT22;34247;50.064;19.970;2022-08-01T06:21:16;34.30;32.80
21085;DHT22;34247;50.064;19.970;2022-08-01T06:22:19;34.40;32.70
21085;DHT22;34247;50.064;19.970;2022-08-01T06:23:23;34.50;32.50
21085;DHT22;34247;50.064;19.970;2022-08-01T06:24:34;34.50;32.40
21085;DHT22;34247;50.064;19.970;2022-08-01T06:25:39;34.70;32.40
21085;DHT22;34247;50.064;19.970;2022-08-01T06:26:42;34.80;32.20
21085;DHT22;34247;50.064;19.970;2022-08-01T06:27:46;34.80;32.10
21085;DHT22;34247;50.064;19.970;2022-08-01T06:28:50;34.90;31.90
21085;DHT22;34247;50.064;19.970;2022-08-01T06:29:54;34.90;31.70
21085;DHT22;34247;50.064;19.970;2022-08-01T06:30:58;35.00;31.70
21085;DHT22;34247;50.064;19.970;2022-08-01T06:32:03;35.20;31.80
21085;DHT22;34247;50.064;19.970;2022-08-01T06:33:08;35.20;31.30
21085;DHT22;34247;50.064;19.970;2022-08-01T06:34:12;35.40;31.10
21085;DHT22;34247;50.064;19.970;2022-08-01T06:35:16;35.50;30.80
21085;DHT22;34247;50.064;19.970;2022-08-01T06:36:19;35.50;30.70
21085;DHT22;34247;50.064;19.970;2022-08-01T06:37:23;35.60;30.60
21085;DHT22;34247;50.064;19.970;2022-08-01T06:38:31;35.70;30.30
21085;DHT22;34247;50.064;19.970;2022-08-01T06:39:35;35.80;30.10
21085;DHT22;34247;50.064;19.970;2022-08-01T06:40:39;35.80;30.00
21085;DHT22;34247;50.064;19.970;2022-08-01T06:41:43;36.00;30.20
21085;DHT22;34247;50.064;19.970;2022-08-01T06:42:49;36.10;30.40
21085;DHT22;34247;50.064;19.970;2022-08-01T06:43:53;36.20;30.10
21085;DHT22;34247;50.064;19.970;2022-08-01T06:44:57;36.30;30.30
21085;DHT22;34247;50.064;19.970;2022-08-01T06:46:01;36.30;30.00
21085;DHT22;34247;50.064;19.970;2022-08-01T06:47:05;36.40;30.00
21085;DHT22;34247;50.064;19.970;2022-08-01T06:48:09;36.60;29.90
21085;DHT22;34247;50.064;19.970;2022-08-01T06:49:13;36.60;29.70
21085;DHT22;34247;50.064;19.970;2022-08-01T06:50:18;36.70;29.60
21085;DHT22;34247;50.064;19.970;2022-08-01T06:51:22;36.80;29.40
21085;DHT22;34247;50.064;19.970;2022-08-01T06:52:26;36.90;29.30
21085;DHT22;34247;50.064;19.970;2022-08-01T06:53:31;37.00;29.20
21085;DHT22;34247;50.064;19.970;2022-08-01T06:54:38;37.10;28.90
21085;DHT22;34247;50.064;19.970;2022-08-01T06:55:42;37.20;28.90
21085;DHT22;34247;50.064;19.970;2022-08-01T06:56:47;37.30;28.90
21085;DHT22;34247;50.064;19.970;2022-08-01T06:57:52;37.40;28.70
21085;DHT22;34247;50.064;19.970;2022-08-01T06:58:56;37.50;28.70
21085;DHT22;34247;50.064;19.970;2022-08-01T07:00:05;37.60;28.50
21085;DHT22;34247;50.064;19.970;2022-08-01T07:01:15;37.70;28.50
21085;DHT22;34247;50.064;19.970;2022-08-01T07:02:21;37.80;28.40
21085;DHT22;34247;50.064;19.970;2022-08-01T07:03:26;37.80;28.00
21085;DHT22;34247;50.064;19.970;2022-08-01T07:04:50;38.00;28.10
21085;DHT22;34247;50.064;19.970;2022-08-01T07:05:54;38.10;28.00
21085;DHT22;34247;50.064;19.970;2022-08-01T07:06:58;38.20;28.10
21085;DHT22;34247;50.064;19.970;2022-08-01T07:08:02;38.30;27.90
21085;DHT22;34247;50.064;19.970;2022-08-01T07:09:06;38.30;27.50
21085;DHT22;34247;50.064;19.970;2022-08-01T07:10:16;38.50;27.70
21085;DHT22;34247;50.064;19.970;2022-08-01T07:11:23;38.50;27.40
21085;DHT22;34247;50.064;19.970;2022-08-01T07:12:27;38.70;27.20
21085;DHT22;34247;50.064;19.970;2022-08-01T07:13:31;38.70;27.20
21085;DHT22;34247;50.064;19.970;2022-08-01T07:14:45;38.80;27.10